sensor_id;sensor_type;location;lat;lon;timestamp;temperature;humidity
68801;SHT31;55784;50.734;7.086;2024-03-25T00:01:50;6.16;90.08
68801;SHT31;55784;50.734;7.086;2024-03-25T00:04:15;6.17;90.01
68801;SHT31;55784;50.734;7.086;2024-03-25T00:06:40;6.22;89.88
68801;SHT31;55784;50.734;7.086;2024-03-25T00:09:06;6.29;89.87
68801;SHT31;55784;50.734;7.086;2024-03-25T00:11:33;6.26;89.57
68801;SHT31;55784;50.734;7.086;2024-03-25T00:13:58;6.33;89.48
68801;SHT31;55784;50.734;7.086;2024-03-25T00:16:23;6.41;89.73
68801;SHT31;55784;50.734;7.086;2024-03-25T00:18:48;6.39;89.70
68801;SHT31;55784;50.734;7.086;2024-03-25T00:21:14;6.34;89.69
68801;SHT31;55784;50.734;7.086;2024-03-25T00:23:39;6.32;90.38
68801;SHT31;55784;50.734;7.086;2024-03-25T00:26:04;6.29;90.95
68801;SHT31;55784;50.734;7.086;2024-03-25T00:28:30;6.25;91.58
68801;SHT31;55784;50.734;7.086;2024-03-25T00:30:55;6.25;92.02
68801;SHT31;55784;50.734;7.086;2024-03-25T00:33:20;6.23;92.26
68801;SHT31;55784;50.734;7.086;2024-03-25T00:35:46;6.27;92.22
68801;SHT31;55784;50.734;7.086;2024-03-25T00:38:12;6.27;92.40
68801;SHT31;55784;50.734;7.086;2024-03-25T00:40:37;6.26;92.68
68801;SHT31;55784;50.734;7.086;2024-03-25T00:43:02;6.22;92.35
68801;SHT31;55784;50.734;7.086;2024-03-25T00:45:28;6.26;91.81
68801;SHT31;55784;50.734;7.086;2024-03-25T00:47:56;6.26;92.06
68801;SHT31;55784;50.734;7.086;2024-03-25T00:50:21;6.23;91.47
68801;SHT31;55784;50.734;7.086;2024-03-25T00:52:47;6.23;91.71
68801;SHT31;55784;50.734;7.086;2024-03-25T00:55:12;6.27;91.92
68801;SHT31;55784;50.734;7.086;2024-03-25T00:57:37;6.19;91.87
68801;SHT31;55784;50.734;7.086;2024-03-25T01:00:03;6.12;91.99
68801;SHT31;55784;50.734;7.086;2024-03-25T01:02:29;6.08;92.23
68801;SHT31;55784;50.734;7.086;2024-03-25T01:04:55;5.92;92.65
68801;SHT31;55784;50.734;7.086;2024-03-25T01:07:21;5.76;93.19
68801;SHT31;55784;50.734;7.086;2024-03-25T01:09:47;5.69;93.66
68801;SHT31;55784;50.734;7.086;2024-03-25T01:12:12;5.61;93.90
68801;SHT31;55784;50.734;7.086;2024-03-25T01:14:38;5.54;94.15
68801;SHT31;55784;50.734;7.086;2024-03-25T01:17:03;5.47;94.50
68801;SHT31;55784;50.734;7.086;2024-03-25T01:19:29;5.44;94.71
68801;SHT31;55784;50.734;7.086;2024-03-25T01:21:54;5.48;94.92
68801;SHT31;55784;50.734;7.086;2024-03-25T01:24:19;5.54;94.79
68801;SHT31;55784;50.734;7.086;2024-03-25T01:26:45;5.56;94.69
68801;SHT31;55784;50.734;7.086;2024-03-25T01:29:10;5.62;94.54
68801;SHT31;55784;50.734;7.086;2024-03-25T01:31:35;5.66;94.44
68801;SHT31;55784;50.734;7.086;2024-03-25T01:34:01;5.71;94.24
68801;SHT31;55784;50.734;7.086;2024-03-25T01:36:26;5.75;94.16
68801;SHT31;55784;50.734;7.086;2024-03-25T01:38:52;5.76;94.17
68801;SHT31;55784;50.734;7.086;2024-03-25T01:41:20;5.81;93.99
68801;SHT31;55784;50.734;7.086;2024-03-25T01:43:47;5.84;93.81
68801;SHT31;55784;50.734;7.086;2024-03-25T01:46:13;5.88;93.70
68801;SHT31;55784;50.734;7.086;2024-03-25T01:48:40;5.89;93.28
68801;SHT31;55784;50.734;7.086;2024-03-25T01:51:05;5.86;93.15
68801;SHT31;55784;50.734;7.086;2024-03-25T01:53:31;5.86;93.24
68801;SHT31;55784;50.734;7.086;2024-03-25T01:55:58;5.79;93.40
68801;SHT31;55784;50.734;7.086;2024-03-25T01:58:24;5.84;93.44
68801;SHT31;55784;50.734;7.086;2024-03-25T02:07:35;5.78;92.79
68801;SHT31;55784;50.734;7.086;2024-03-25T02:10:06;5.81;92.73
68801;SHT31;55784;50.734;7.086;2024-03-25T02:12:32;5.81;92.50
68801;SHT31;55784;50.734;7.086;2024-03-25T02:14:59;5.88;92.50
68801;SHT31;55784;50.734;7.086;2024-03-25T02:17:24;5.86;92.15
68801;SHT31;55784;50.734;7.086;2024-03-25T02:19:50;5.88;91.99
68801;SHT31;55784;50.734;7.086;2024-03-25T02:22:16;5.86;92.00
68801;SHT31;55784;50.734;7.086;2024-03-25T02:24:42;5.88;91.80
68801;SHT31;55784;50.734;7.086;2024-03-25T02:27:09;5.81;91.72
68801;SHT31;55784;50.734;7.086;2024-03-25T02:29:39;5.84;91.66
68801;SHT31;55784;50.734;7.086;2024-03-25T02:32:05;5.79;91.93
68801;SHT31;55784;50.734;7.086;2024-03-25T02:34:31;5.71;91.95
68801;SHT31;55784;50.734;7.086;2024-03-25T02:36:56;5.59;92.22
68801;SHT31;55784;50.734;7.086;2024-03-25T02:39:22;5.52;92.48
68801;SHT31;55784;50.734;7.086;2024-03-25T02:41:49;5.47;92.54
68801;SHT31;55784;50.734;7.086;2024-03-25T02:44:15;5.43;92.49
68801;SHT31;55784;50.734;7.086;2024-03-25T02:46:41;5.44;92.58
68801;SHT31;55784;50.734;7.086;2024-03-25T02:49:06;5.43;92.41
68801;SHT31;55784;50.734;7.086;2024-03-25T02:51:31;5.38;92.55
68801;SHT31;55784;50.734;7.086;2024-03-25T02:53:56;5.31;92.72
68801;SHT31;55784;50.734;7.086;2024-03-25T02:56:22;5.21;92.99
68801;SHT31;55784;50.734;7.086;2024-03-25T02:58:47;5.14;93.19
68801;SHT31;55784;50.734;7.086;2024-03-25T03:01:12;5.09;93.34
68801;SHT31;55784;50.734;7.086;2024-03-25T03:03:38;5.03;93.62
68801;SHT31;55784;50.734;7.086;2024-03-25T03:06:03;4.97;93.78
68801;SHT31;55784;50.734;7.086;2024-03-25T03:08:28;4.92;93.84
68801;SHT31;55784;50.734;7.086;2024-03-25T03:10:54;4.89;93.98
68801;SHT31;55784;50.734;7.086;2024-03-25T03:13:19;4.79;94.45
68801;SHT31;55784;50.734;7.086;2024-03-25T03:15:45;4.69;94.39
68801;SHT31;55784;50.734;7.086;2024-03-25T03:18:10;4.69;94.58
68801;SHT31;55784;50.734;7.086;2024-03-25T03:20:36;4.62;94.61
68801;SHT31;55784;50.734;7.086;2024-03-25T03:23:01;4.62;94.57
68801;SHT31;55784;50.734;7.086;2024-03-25T03:25:27;4.59;94.55
68801;SHT31;55784;50.734;7.086;2024-03-25T03:27:54;4.55;94.76
68801;SHT31;55784;50.734;7.086;2024-03-25T03:30:20;4.53;94.92
68801;SHT31;55784;50.734;7.086;2024-03-25T03:32:45;4.59;94.55
68801;SHT31;55784;50.734;7.086;2024-03-25T03:35:10;4.60;94.23
68801;SHT31;55784;50.734;7.086;2024-03-25T03:37:36;4.66;94.02
68801;SHT31;55784;50.734;7.086;2024-03-25T03:40:01;4.60;94.12
68801;SHT31;55784;50.734;7.086;2024-03-25T03:42:26;4.62;94.14
68801;SHT31;55784;50.734;7.086;2024-03-25T03:44:51;4.59;94.10
68801;SHT31;55784;50.734;7.086;2024-03-25T03:47:17;4.58;94.14
68801;SHT31;55784;50.734;7.086;2024-03-25T03:49:42;4.65;94.19
68801;SHT31;55784;50.734;7.086;2024-03-25T03:52:07;4.69;93.30
68801;SHT31;55784;50.734;7.086;2024-03-25T03:54:33;4.70;93.23
68801;SHT31;55784;50.734;7.086;2024-03-25T03:56:58;4.75;93.22
68801;SHT31;55784;50.734;7.086;2024-03-25T03:59:23;4.68;93.17
68801;SHT31;55784;50.734;7.086;2024-03-25T04:01:49;4.60;93.37
68801;SHT31;55784;50.734;7.086;2024-03-25T04:04:14;4.55;93.58
68801;SHT31;55784;50.734;7.086;2024-03-25T04:06:39;4.50;93.75
68801;SHT31;55784;50.734;7.086;2024-03-25T04:09:06;4.44;93.95
68801;SHT31;55784;50.734;7.086;2024-03-25T04:11:34;4.41;94.18
68801;SHT31;55784;50.734;7.086;2024-03-25T04:14:00;4.39;94.44
68801;SHT31;55784;50.734;7.086;2024-03-25T04:16:25;4.38;94.46
68801;SHT31;55784;50.734;7.086;2024-03-25T04:18:51;4.39;94.58
68801;SHT31;55784;50.734;7.086;2024-03-25T04:21:16;4.34;94.32
68801;SHT31;55784;50.734;7.086;2024-03-25T04:23:42;4.25;94.53
68801;SHT31;55784;50.734;7.086;2024-03-25T04:26:08;4.22;94.65
68801;SHT31;55784;50.734;7.086;2024-03-25T04:28:34;4.14;94.83
68801;SHT31;55784;50.734;7.086;2024-03-25T04:30:59;4.04;95.32
68801;SHT31;55784;50.734;7.086;2024-03-25T04:33:24;3.99;95.58
68801;SHT31;55784;50.734;7.086;2024-03-25T04:35:49;3.97;95.57
68801;SHT31;55784;50.734;7.086;2024-03-25T04:38:17;3.91;95.73
68801;SHT31;55784;50.734;7.086;2024-03-25T04:40:43;3.93;95.30
68801;SHT31;55784;50.734;7.086;2024-03-25T04:43:09;3.88;95.75
68801;SHT31;55784;50.734;7.086;2024-03-25T04:45:34;3.86;95.94
68801;SHT31;55784;50.734;7.086;2024-03-25T04:48:00;3.81;95.61
68801;SHT31;55784;50.734;7.086;2024-03-25T04:50:26;3.74;95.90
68801;SHT31;55784;50.734;7.086;2024-03-25T04:52:51;3.70;95.95
68801;SHT31;55784;50.734;7.086;2024-03-25T04:55:16;3.64;96.25
68801;SHT31;55784;50.734;7.086;2024-03-25T04:57:42;3.57;96.27
68801;SHT31;55784;50.734;7.086;2024-03-25T05:00:08;3.53;96.39
68801;SHT31;55784;50.734;7.086;2024-03-25T05:02:36;3.49;96.50
68801;SHT31;55784;50.734;7.086;2024-03-25T05:05:02;3.44;96.59
68801;SHT31;55784;50.734;7.086;2024-03-25T05:07:27;3.47;96.59
68801;SHT31;55784;50.734;7.086;2024-03-25T05:09:53;3.43;96.67
68801;SHT31;55784;50.734;7.086;2024-03-25T05:12:18;3.46;96.98
68801;SHT31;55784;50.734;7.086;2024-03-25T05:14:43;3.44;96.94
68801;SHT31;55784;50.734;7.086;2024-03-25T05:17:08;3.40;96.89
68801;SHT31;55784;50.734;7.086;2024-03-25T05:19:34;3.37;96.95
68801;SHT31;55784;50.734;7.086;2024-03-25T05:21:59;3.33;97.14
68801;SHT31;55784;50.734;7.086;2024-03-25T05:24:25;3.26;97.08
68801;SHT31;55784;50.734;7.086;2024-03-25T05:26:53;3.25;97.16
68801;SHT31;55784;50.734;7.086;2024-03-25T05:29:18;3.23;97.07
68801;SHT31;55784;50.734;7.086;2024-03-25T05:31:56;3.26;97.04
68801;SHT31;55784;50.734;7.086;2024-03-25T05:34:21;3.27;96.67
68801;SHT31;55784;50.734;7.086;2024-03-25T05:36:47;3.25;96.80
68801;SHT31;55784;50.734;7.086;2024-03-25T05:39:12;3.29;96.98
68801;SHT31;55784;50.734;7.086;2024-03-25T05:41:38;3.37;96.82
68801;SHT31;55784;50.734;7.086;2024-03-25T05:44:03;3.43;96.76
68801;SHT31;55784;50.734;7.086;2024-03-25T05:46:28;3.47;96.46
68801;SHT31;55784;50.734;7.086;2024-03-25T05:48:54;3.50;96.26
68801;SHT31;55784;50.734;7.086;2024-03-25T05:51:19;3.52;95.79
68801;SHT31;55784;50.734;7.086;2024-03-25T05:53:45;3.50;95.88
68801;SHT31;55784;50.734;7.086;2024-03-25T05:56:11;3.54;95.67
68801;SHT31;55784;50.734;7.086;2024-03-25T05:58:36;3.57;95.42
68801;SHT31;55784;50.734;7.086;2024-03-25T06:01:01;3.59;95.46
68801;SHT31;55784;50.734;7.086;2024-03-25T06:03:29;3.59;95.55
68801;SHT31;55784;50.734;7.086;2024-03-25T06:05:55;3.59;95.48
68801;SHT31;55784;50.734;7.086;2024-03-25T06:08:20;3.66;95.31
68801;SHT31;55784;50.734;7.086;2024-03-25T06:10:52;3.69;95.51
68801;SHT31;55784;50.734;7.086;2024-03-25T06:13:17;3.67;95.28
68801;SHT31;55784;50.734;7.086;2024-03-25T06:15:43;3.73;95.21
68801;SHT31;55784;50.734;7.086;2024-03-25T06:18:08;3.78;94.51
68801;SHT31;55784;50.734;7.086;2024-03-25T06:20:35;3.86;94.73
68801;SHT31;55784;50.734;7.086;2024-03-25T06:23:00;3.93;94.45
68801;SHT31;55784;50.734;7.086;2024-03-25T06:25:26;3.99;94.08
68801;SHT31;55784;50.734;7.086;2024-03-25T06:27:53;4.08;93.59
68801;SHT31;55784;50.734;7.086;2024-03-25T06:30:18;4.12;92.85
68801;SHT31;55784;50.734;7.086;2024-03-25T06:33:03;4.19;92.67
68801;SHT31;55784;50.734;7.086;2024-03-25T06:35:46;4.28;92.90
68801;SHT31;55784;50.734;7.086;2024-03-25T06:38:12;4.37;92.31
68801;SHT31;55784;50.734;7.086;2024-03-25T06:40:37;4.49;92.41
68801;SHT31;55784;50.734;7.086;2024-03-25T06:43:03;4.60;92.08
68801;SHT31;55784;50.734;7.086;2024-03-25T06:45:29;4.70;91.19
68801;SHT31;55784;50.734;7.086;2024-03-25T06:47:55;4.76;90.53
68801;SHT31;55784;50.734;7.086;2024-03-25T06:50:21;4.83;90.18
68801;SHT31;55784;50.734;7.086;2024-03-25T06:52:46;4.90;89.77
68801;SHT31;55784;50.734;7.086;2024-03-25T06:55:12;5.03;89.47
68801;SHT31;55784;50.734;7.086;2024-03-25T06:57:37;5.13;89.10
68801;SHT31;55784;50.734;7.086;2024-03-25T07:00:03;5.24;88.51
68801;SHT31;55784;50.734;7.086;2024-03-25T07:02:32;5.33;87.73
68801;SHT31;55784;50.734;7.086;2024-03-25T07:04:57;5.45;87.63
68801;SHT31;55784;50.734;7.086;2024-03-25T07:07:22;5.51;86.53
68801;SHT31;55784;50.734;7.086;2024-03-25T07:09:48;5.78;86.33
68801;SHT31;55784;50.734;7.086;2024-03-25T07:12:13;5.91;85.87
68801;SHT31;55784;50.734;7.086;2024-03-25T07:14:38;6.08;85.56
68801;SHT31;55784;50.734;7.086;2024-03-25T07:17:04;6.10;84.39
68801;SHT31;55784;50.734;7.086;2024-03-25T07:19:29;6.23;84.16
68801;SHT31;55784;50.734;7.086;2024-03-25T07:21:54;6.50;84.18
68801;SHT31;55784;50.734;7.086;2024-03-25T07:24:19;6.84;83.65
68801;SHT31;55784;50.734;7.086;2024-03-25T07:26:45;7.01;82.42
68801;SHT31;55784;50.734;7.086;2024-03-25T07:29:11;7.32;82.31
68801;SHT31;55784;50.734;7.086;2024-03-25T07:31:36;7.63;81.50
68801;SHT31;55784;50.734;7.086;2024-03-25T07:34:02;8.00;80.74
68801;SHT31;55784;50.734;7.086;2024-03-25T07:36:27;8.23;79.98
68801;SHT31;55784;50.734;7.086;2024-03-25T07:38:54;8.44;79.37
68801;SHT31;55784;50.734;7.086;2024-03-25T07:41:19;8.58;78.30
68801;SHT31;55784;50.734;7.086;2024-03-25T07:43:44;8.57;77.34
68801;SHT31;55784;50.734;7.086;2024-03-25T07:46:10;8.71;77.00
68801;SHT31;55784;50.734;7.086;2024-03-25T07:48:36;8.86;76.83
68801;SHT31;55784;50.734;7.086;2024-03-25T07:51:02;9.05;76.13
68801;SHT31;55784;50.734;7.086;2024-03-25T07:53:27;9.15;75.16
68801;SHT31;55784;50.734;7.086;2024-03-25T07:55:53;8.83;75.38
68801;SHT31;55784;50.734;7.086;2024-03-25T07:58:18;8.82;75.56
68801;SHT31;55784;50.734;7.086;2024-03-25T08:00:44;8.69;75.95
68801;SHT31;55784;50.734;7.086;2024-03-25T08:03:12;8.75;76.47
68801;SHT31;55784;50.734;7.086;2024-03-25T08:05:37;8.33;75.69
68801;SHT31;55784;50.734;7.086;2024-03-25T08:08:03;8.18;76.28
68801;SHT31;55784;50.734;7.086;2024-03-25T08:10:29;8.07;76.83
68801;SHT31;55784;50.734;7.086;2024-03-25T08:12:56;8.08;77.33
68801;SHT31;55784;50.734;7.086;2024-03-25T08:15:22;8.00;77.32
68801;SHT31;55784;50.734;7.086;2024-03-25T08:17:47;8.04;77.11
68801;SHT31;55784;50.734;7.086;2024-03-25T08:20:12;8.10;77.22
68801;SHT31;55784;50.734;7.086;2024-03-25T08:22:38;8.08;77.26
68801;SHT31;55784;50.734;7.086;2024-03-25T08:25:03;8.21;77.36
68801;SHT31;55784;50.734;7.086;2024-03-25T08:27:29;8.24;77.73
68801;SHT31;55784;50.734;7.086;2024-03-25T08:29:59;8.27;76.39
68801;SHT31;55784;50.734;7.086;2024-03-25T08:32:25;8.45;76.97
68801;SHT31;55784;50.734;7.086;2024-03-25T08:34:53;8.68;76.31
68801;SHT31;55784;50.734;7.086;2024-03-25T08:37:22;8.61;75.92
68801;SHT31;55784;50.734;7.086;2024-03-25T08:40:11;8.69;75.84
68801;SHT31;55784;50.734;7.086;2024-03-25T08:43:04;8.86;76.33
68801;SHT31;55784;50.734;7.086;2024-03-25T08:45:29;8.98;75.30
68801;SHT31;55784;50.734;7.086;2024-03-25T08:48:04;8.93;75.51
68801;SHT31;55784;50.734;7.086;2024-03-25T08:50:29;9.10;74.58
68801;SHT31;55784;50.734;7.086;2024-03-25T08:52:55;9.19;74.43
68801;SHT31;55784;50.734;7.086;2024-03-25T08:55:20;9.36;74.10
68801;SHT31;55784;50.734;7.086;2024-03-25T08:57:46;9.39;74.14
68801;SHT31;55784;50.734;7.086;2024-03-25T09:00:12;9.30;73.45
68801;SHT31;55784;50.734;7.086;2024-03-25T09:02:37;9.39;74.14
68801;SHT31;55784;50.734;7.086;2024-03-25T09:05:05;9.39;73.39
68801;SHT31;55784;50.734;7.086;2024-03-25T09:07:34;9.54;73.32
68801;SHT31;55784;50.734;7.086;2024-03-25T09:10:00;9.57;72.99
68801;SHT31;55784;50.734;7.086;2024-03-25T09:12:44;9.78;72.82
68801;SHT31;55784;50.734;7.086;2024-03-25T09:15:10;9.99;73.02
68801;SHT31;55784;50.734;7.086;2024-03-25T09:17:36;10.11;72.59
68801;SHT31;55784;50.734;7.086;2024-03-25T09:20:02;10.22;71.12
68801;SHT31;55784;50.734;7.086;2024-03-25T09:22:30;9.93;71.45
68801;SHT31;55784;50.734;7.086;2024-03-25T09:24:55;9.46;70.93
68801;SHT31;55784;50.734;7.086;2024-03-25T09:27:21;9.36;71.66
68801;SHT31;55784;50.734;7.086;2024-03-25T09:29:46;9.50;70.72
68801;SHT31;55784;50.734;7.086;2024-03-25T09:32:11;9.55;70.91
68801;SHT31;55784;50.734;7.086;2024-03-25T09:34:37;9.70;70.71
68801;SHT31;55784;50.734;7.086;2024-03-25T09:37:06;9.83;70.27
68801;SHT31;55784;50.734;7.086;2024-03-25T09:39:31;9.95;69.84
68801;SHT31;55784;50.734;7.086;2024-03-25T09:41:57;10.05;70.15
68801;SHT31;55784;50.734;7.086;2024-03-25T09:44:28;10.22;70.28
68801;SHT31;55784;50.734;7.086;2024-03-25T09:46:54;10.25;69.12
68801;SHT31;55784;50.734;7.086;2024-03-25T09:49:20;10.38;68.17
68801;SHT31;55784;50.734;7.086;2024-03-25T09:51:45;10.53;67.28
68801;SHT31;55784;50.734;7.086;2024-03-25T09:54:11;10.63;66.82
68801;SHT31;55784;50.734;7.086;2024-03-25T09:56:38;10.77;66.49
68801;SHT31;55784;50.734;7.086;2024-03-25T09:59:04;10.55;66.11
68801;SHT31;55784;50.734;7.086;2024-03-25T10:01:30;10.46;65.09
68801;SHT31;55784;50.734;7.086;2024-03-25T10:03:55;10.52;63.97
68801;SHT31;55784;50.734;7.086;2024-03-25T10:06:21;10.38;64.05
68801;SHT31;55784;50.734;7.086;2024-03-25T10:08:46;10.31;65.07
68801;SHT31;55784;50.734;7.086;2024-03-25T10:11:11;10.18;65.69
68801;SHT31;55784;50.734;7.086;2024-03-25T10:13:40;10.26;65.92
68801;SHT31;55784;50.734;7.086;2024-03-25T10:16:07;10.25;66.67
68801;SHT31;55784;50.734;7.086;2024-03-25T10:18:32;10.34;66.89
68801;SHT31;55784;50.734;7.086;2024-03-25T10:20:58;10.39;66.87
68801;SHT31;55784;50.734;7.086;2024-03-25T10:23:24;10.46;65.11
68801;SHT31;55784;50.734;7.086;2024-03-25T10:25:52;10.69;66.81
68801;SHT31;55784;50.734;7.086;2024-03-25T10:28:17;10.90;65.96
68801;SHT31;55784;50.734;7.086;2024-03-25T10:30:43;11.03;65.48
68801;SHT31;55784;50.734;7.086;2024-03-25T10:33:08;11.34;64.79
68801;SHT31;55784;50.734;7.086;2024-03-25T10:35:35;11.54;63.49
68801;SHT31;55784;50.734;7.086;2024-03-25T10:38:04;11.50;62.12
68801;SHT31;55784;50.734;7.086;2024-03-25T10:40:42;11.65;62.81
68801;SHT31;55784;50.734;7.086;2024-03-25T10:43:11;11.82;63.85
68801;SHT31;55784;50.734;7.086;2024-03-25T10:45:41;11.98;62.37
68801;SHT31;55784;50.734;7.086;2024-03-25T10:48:12;12.13;62.86
68801;SHT31;55784;50.734;7.086;2024-03-25T10:50:43;12.33;63.05
68801;SHT31;55784;50.734;7.086;2024-03-25T10:53:10;12.47;62.74
68801;SHT31;55784;50.734;7.086;2024-03-25T10:59:31;12.46;61.86
68801;SHT31;55784;50.734;7.086;2024-03-25T11:02:20;12.36;61.94
68801;SHT31;55784;50.734;7.086;2024-03-25T11:05:01;12.11;63.23
68801;SHT31;55784;50.734;7.086;2024-03-25T11:07:56;11.91;62.73
68801;SHT31;55784;50.734;7.086;2024-03-25T11:10:52;11.77;63.26
68801;SHT31;55784;50.734;7.086;2024-03-25T11:13:28;11.81;62.98
68801;SHT31;55784;50.734;7.086;2024-03-25T11:16:39;11.93;61.50
68801;SHT31;55784;50.734;7.086;2024-03-25T11:19:18;11.92;61.36
68801;SHT31;55784;50.734;7.086;2024-03-25T11:21:44;11.52;61.82
68801;SHT31;55784;50.734;7.086;2024-03-25T11:24:09;11.81;62.27
68801;SHT31;55784;50.734;7.086;2024-03-25T11:26:35;12.26;61.42
68801;SHT31;55784;50.734;7.086;2024-03-25T11:29:05;12.36;60.62
68801;SHT31;55784;50.734;7.086;2024-03-25T11:31:33;12.42;59.68
68801;SHT31;55784;50.734;7.086;2024-03-25T11:34:03;12.49;58.28
68801;SHT31;55784;50.734;7.086;2024-03-25T11:36:29;11.99;59.51
68801;SHT31;55784;50.734;7.086;2024-03-25T11:39:01;12.40;58.27
68801;SHT31;55784;50.734;7.086;2024-03-25T11:41:31;12.63;58.06
68801;SHT31;55784;50.734;7.086;2024-03-25T11:43:57;12.95;58.02
68801;SHT31;55784;50.734;7.086;2024-03-25T11:46:25;13.17;56.87
68801;SHT31;55784;50.734;7.086;2024-03-25T11:48:51;13.11;56.03
68801;SHT31;55784;50.734;7.086;2024-03-25T11:51:17;13.11;56.67
68801;SHT31;55784;50.734;7.086;2024-03-25T11:53:43;12.90;55.96
68801;SHT31;55784;50.734;7.086;2024-03-25T11:56:08;12.90;56.18
68801;SHT31;55784;50.734;7.086;2024-03-25T11:58:33;12.80;55.96
68801;SHT31;55784;50.734;7.086;2024-03-25T12:00:58;12.63;55.55
68801;SHT31;55784;50.734;7.086;2024-03-25T12:03:24;12.57;56.51
68801;SHT31;55784;50.734;7.086;2024-03-25T12:05:49;12.43;56.10
68801;SHT31;55784;50.734;7.086;2024-03-25T12:08:14;12.49;55.23
68801;SHT31;55784;50.734;7.086;2024-03-25T12:10:40;12.63;56.53
68801;SHT31;55784;50.734;7.086;2024-03-25T12:13:25;12.73;55.76
68801;SHT31;55784;50.734;7.086;2024-03-25T12:15:51;12.84;55.83
68801;SHT31;55784;50.734;7.086;2024-03-25T12:18:17;12.98;55.21
68801;SHT31;55784;50.734;7.086;2024-03-25T12:20:47;13.07;56.13
68801;SHT31;55784;50.734;7.086;2024-03-25T12:23:13;12.98;54.19
68801;SHT31;55784;50.734;7.086;2024-03-25T12:25:38;12.73;55.04
68801;SHT31;55784;50.734;7.086;2024-03-25T12:28:13;12.44;54.80
68801;SHT31;55784;50.734;7.086;2024-03-25T12:30:53;12.36;55.40
68801;SHT31;55784;50.734;7.086;2024-03-25T12:33:20;12.21;56.00
68801;SHT31;55784;50.734;7.086;2024-03-25T12:35:46;12.29;57.15
68801;SHT31;55784;50.734;7.086;2024-03-25T12:38:28;12.36;56.06
68801;SHT31;55784;50.734;7.086;2024-03-25T12:41:04;12.46;55.89
68801;SHT31;55784;50.734;7.086;2024-03-25T12:43:31;12.66;55.31
68801;SHT31;55784;50.734;7.086;2024-03-25T12:45:58;12.93;54.77
68801;SHT31;55784;50.734;7.086;2024-03-25T12:48:23;13.03;53.70
68801;SHT31;55784;50.734;7.086;2024-03-25T12:50:49;12.97;53.55
68801;SHT31;55784;50.734;7.086;2024-03-25T12:53:17;12.79;54.54
68801;SHT31;55784;50.734;7.086;2024-03-25T12:55:42;13.12;54.75
68801;SHT31;55784;50.734;7.086;2024-03-25T12:58:08;13.22;54.61
68801;SHT31;55784;50.734;7.086;2024-03-25T13:00:33;13.15;53.75
68801;SHT31;55784;50.734;7.086;2024-03-25T13:02:58;13.17;54.22
68801;SHT31;55784;50.734;7.086;2024-03-25T13:05:25;13.58;54.25
68801;SHT31;55784;50.734;7.086;2024-03-25T13:07:50;13.80;53.92
68801;SHT31;55784;50.734;7.086;2024-03-25T13:10:15;13.75;54.31
68801;SHT31;55784;50.734;7.086;2024-03-25T13:12:41;13.75;54.24
68801;SHT31;55784;50.734;7.086;2024-03-25T13:15:07;13.54;53.42
68801;SHT31;55784;50.734;7.086;2024-03-25T13:17:32;13.28;54.67
68801;SHT31;55784;50.734;7.086;2024-03-25T13:19:57;13.10;55.73
68801;SHT31;55784;50.734;7.086;2024-03-25T13:22:23;12.88;55.26
68801;SHT31;55784;50.734;7.086;2024-03-25T13:24:48;13.24;54.90
68801;SHT31;55784;50.734;7.086;2024-03-25T13:27:15;13.38;54.10
68801;SHT31;55784;50.734;7.086;2024-03-25T13:29:40;13.49;53.69
68801;SHT31;55784;50.734;7.086;2024-03-25T13:32:05;13.54;52.61
68801;SHT31;55784;50.734;7.086;2024-03-25T13:34:31;13.38;53.02
68801;SHT31;55784;50.734;7.086;2024-03-25T13:36:56;13.19;52.89
68801;SHT31;55784;50.734;7.086;2024-03-25T13:39:21;13.00;53.08
68801;SHT31;55784;50.734;7.086;2024-03-25T13:41:46;13.01;53.27
68801;SHT31;55784;50.734;7.086;2024-03-25T13:44:13;13.19;53.08
68801;SHT31;55784;50.734;7.086;2024-03-25T13:46:38;13.25;52.92
68801;SHT31;55784;50.734;7.086;2024-03-25T13:49:06;13.32;52.78
68801;SHT31;55784;50.734;7.086;2024-03-25T13:51:31;13.44;52.17
68801;SHT31;55784;50.734;7.086;2024-03-25T13:53:56;13.38;52.27
68801;SHT31;55784;50.734;7.086;2024-03-25T13:56:22;13.57;52.76
68801;SHT31;55784;50.734;7.086;2024-03-25T13:58:47;13.66;52.87
68801;SHT31;55784;50.734;7.086;2024-03-25T14:01:16;13.68;52.05
68801;SHT31;55784;50.734;7.086;2024-03-25T14:03:42;13.65;52.33
68801;SHT31;55784;50.734;7.086;2024-03-25T14:06:07;13.73;51.94
68801;SHT31;55784;50.734;7.086;2024-03-25T14:08:32;13.86;51.07
68801;SHT31;55784;50.734;7.086;2024-03-25T14:11:01;13.98;51.18
68801;SHT31;55784;50.734;7.086;2024-03-25T14:13:27;14.00;51.44
68801;SHT31;55784;50.734;7.086;2024-03-25T14:15:53;13.79;51.02
68801;SHT31;55784;50.734;7.086;2024-03-25T14:18:18;13.73;51.89
68801;SHT31;55784;50.734;7.086;2024-03-25T14:20:44;13.66;51.17
68801;SHT31;55784;50.734;7.086;2024-03-25T14:23:09;13.69;49.20
68801;SHT31;55784;50.734;7.086;2024-03-25T14:25:34;13.72;48.14
68801;SHT31;55784;50.734;7.086;2024-03-25T14:28:00;13.76;49.62
68801;SHT31;55784;50.734;7.086;2024-03-25T14:30:25;13.76;49.96
68801;SHT31;55784;50.734;7.086;2024-03-25T14:32:51;13.75;49.77
68801;SHT31;55784;50.734;7.086;2024-03-25T14:35:16;13.82;48.08
68801;SHT31;55784;50.734;7.086;2024-03-25T14:37:42;13.98;48.65
68801;SHT31;55784;50.734;7.086;2024-03-25T14:40:07;13.95;49.99
68801;SHT31;55784;50.734;7.086;2024-03-25T14:42:33;14.02;49.75
68801;SHT31;55784;50.734;7.086;2024-03-25T14:44:59;13.87;48.97
68801;SHT31;55784;50.734;7.086;2024-03-25T14:47:24;13.61;48.94
68801;SHT31;55784;50.734;7.086;2024-03-25T14:49:50;13.45;49.76
68801;SHT31;55784;50.734;7.086;2024-03-25T14:52:15;13.35;50.19
68801;SHT31;55784;50.734;7.086;2024-03-25T14:54:40;13.37;50.35
68801;SHT31;55784;50.734;7.086;2024-03-25T14:57:06;13.39;50.20
68801;SHT31;55784;50.734;7.086;2024-03-25T14:59:31;13.52;50.72
68801;SHT31;55784;50.734;7.086;2024-03-25T15:01:59;13.66;50.16
68801;SHT31;55784;50.734;7.086;2024-03-25T15:04:25;13.87;50.68
68801;SHT31;55784;50.734;7.086;2024-03-25T15:06:50;14.10;50.43
68801;SHT31;55784;50.734;7.086;2024-03-25T15:09:15;14.30;49.28
68801;SHT31;55784;50.734;7.086;2024-03-25T15:11:41;14.48;49.20
68801;SHT31;55784;50.734;7.086;2024-03-25T15:14:09;14.51;49.23
68801;SHT31;55784;50.734;7.086;2024-03-25T15:16:35;14.71;49.30
68801;SHT31;55784;50.734;7.086;2024-03-25T15:19:00;14.95;48.39
68801;SHT31;55784;50.734;7.086;2024-03-25T15:21:25;15.15;48.66
68801;SHT31;55784;50.734;7.086;2024-03-25T15:23:51;15.21;48.01
68801;SHT31;55784;50.734;7.086;2024-03-25T15:26:16;15.21;47.96
68801;SHT31;55784;50.734;7.086;2024-03-25T15:28:41;15.15;48.38
68801;SHT31;55784;50.734;7.086;2024-03-25T15:31:07;15.05;47.58
68801;SHT31;55784;50.734;7.086;2024-03-25T15:33:32;15.12;48.12
68801;SHT31;55784;50.734;7.086;2024-03-25T15:35:58;15.09;47.77
68801;SHT31;55784;50.734;7.086;2024-03-25T15:38:24;15.16;48.08
68801;SHT31;55784;50.734;7.086;2024-03-25T15:40:49;15.08;48.47
68801;SHT31;55784;50.734;7.086;2024-03-25T15:43:18;15.08;49.02
68801;SHT31;55784;50.734;7.086;2024-03-25T15:45:54;14.91;48.38
68801;SHT31;55784;50.734;7.086;2024-03-25T15:48:19;14.78;48.04